Time;durP1;ratioP1;P1;durP2;ratioP2;P2;SDS_P1;SDS_P2;PMS_P1;PMS_P2;Temp;Humidity;BMP_temperature;BMP_pressure;BME280_temperature;BME280_humidity;BME280_pressure;Samples;Min_cycle;Max_cycle;Signal;HPM_P1;HPM_P2
2021/07/28 00:00:56;;;;;;;;;;;24.10;63.00;;;;;;5042577;28;19913;-59
2021/07/28 00:03:22;;;;;;;;;;;24.10;63.10;;;;;;5045934;28;19905;-57
2021/07/28 00:05:47;;;;;;;;;;;24.00;63.10;;;;;;5059706;28;20460;-59
2021/07/28 00:08:13;;;;;;;;;;;24.10;63.20;;;;;;5062044;28;20059;-59
2021/07/28 00:10:38;;;;;;;;;;;24.00;63.10;;;;;;5042777;28;20418;-58
2021/07/28 00:13:04;;;;;;;;;;;24.10;63.10;;;;;;5042800;28;19955;-59
2021/07/28 00:15:29;;;;;;;;;;;24.10;63.10;;;;;;5042424;28;19917;-59
2021/07/28 00:17:59;;;;;;;;;;;24.10;63.20;;;;;;5042233;28;19913;-59
2021/07/28 00:23:13;;;;;;;;;;;24.00;63.10;;;;;;5041993;28;20340;-58
2021/07/28 00:23:16;;;;;;;;;;;24.00;63.10;;;;;;5041757;28;20392;-59
2021/07/28 00:25:44;;;;;;;;;;;24.10;63.20;;;;;;5042112;28;19913;-59
2021/07/28 00:28:10;;;;;;;;;;;24.00;63.20;;;;;;5041726;28;19928;-60
2021/07/28 00:30:35;;;;;;;;;;;24.00;63.20;;;;;;5041784;28;19925;-58
2021/07/28 00:33:01;;;;;;;;;;;24.00;63.20;;;;;;5041878;28;19913;-59
2021/07/28 00:35:27;;;;;;;;;;;24.10;63.30;;;;;;5041757;28;19920;-58
2021/07/28 00:37:54;;;;;;;;;;;24.00;63.30;;;;;;5041660;28;20501;-60
2021/07/28 00:40:19;;;;;;;;;;;24.00;63.30;;;;;;5041871;28;19913;-60
2021/07/28 00:42:45;;;;;;;;;;;24.00;63.30;;;;;;5041764;28;19921;-60
2021/07/28 00:45:10;;;;;;;;;;;24.00;63.30;;;;;;5040955;28;19929;-58
2021/07/28 00:47:36;;;;;;;;;;;24.00;63.30;;;;;;5041688;28;19913;-59
2021/07/28 00:50:04;;;;;;;;;;;24.00;63.40;;;;;;5041475;28;20000;-59
2021/07/28 00:52:30;;;;;;;;;;;24.00;63.40;;;;;;5041714;28;19913;-58
2021/07/28 00:54:56;;;;;;;;;;;24.00;63.40;;;;;;5040210;28;19917;-60
2021/07/28 00:57:21;;;;;;;;;;;24.00;63.50;;;;;;5027051;28;19917;-60
2021/07/28 00:59:47;;;;;;;;;;;24.00;63.50;;;;;;5032145;28;19925;-60
2021/07/28 01:02:12;;;;;;;;;;;24.10;63.60;;;;;;5045435;28;20501;-59
2021/07/28 01:04:38;;;;;;;;;;;24.00;63.50;;;;;;5045101;28;19916;-58
2021/07/28 01:07:03;;;;;;;;;;;24.00;63.40;;;;;;5043814;28;19917;-60
2021/07/28 01:09:28;;;;;;;;;;;24.10;63.40;;;;;;5044678;28;19955;-60
2021/07/28 01:12:03;;;;;;;;;;;24.00;63.30;;;;;;5044196;28;19917;-59
2021/07/28 01:14:29;;;;;;;;;;;24.00;63.30;;;;;;5029569;28;20003;-60
2021/07/28 01:16:54;;;;;;;;;;;24.10;63.30;;;;;;5045730;28;19966;-59
2021/07/28 01:19:20;;;;;;;;;;;24.10;63.30;;;;;;5044547;28;20385;-59
2021/07/28 01:21:46;;;;;;;;;;;24.00;63.30;;;;;;5043398;28;20282;-60
2021/07/28 01:24:12;;;;;;;;;;;24.10;63.30;;;;;;5043498;28;20026;-60
2021/07/28 01:26:37;;;;;;;;;;;24.00;63.20;;;;;;5044913;28;19970;-59
2021/07/28 01:29:03;;;;;;;;;;;24.10;63.20;;;;;;5043732;28;20392;-60
2021/07/28 01:31:28;;;;;;;;;;;24.00;63.00;;;;;;5044836;28;19916;-59
2021/07/28 01:33:54;;;;;;;;;;;24.00;63.10;;;;;;5045132;28;20007;-60
2021/07/28 01:36:20;;;;;;;;;;;24.00;63.00;;;;;;5043217;28;19920;-60
2021/07/28 01:38:45;;;;;;;;;;;24.00;63.00;;;;;;5044645;28;19944;-58
2021/07/28 01:41:11;;;;;;;;;;;24.00;63.00;;;;;;5045069;28;20009;-57
2021/07/28 01:43:37;;;;;;;;;;;24.00;63.10;;;;;;5045191;28;19971;-60
2021/07/28 01:46:02;;;;;;;;;;;24.00;62.90;;;;;;5043278;28;19941;-60
2021/07/28 01:48:28;;;;;;;;;;;24.00;62.80;;;;;;5041840;28;20731;-59
2021/07/28 01:50:56;;;;;;;;;;;24.00;62.80;;;;;;5044459;28;20285;-58
2021/07/28 01:53:22;;;;;;;;;;;24.00;62.90;;;;;;5042675;28;20347;-60
2021/07/28 01:55:47;;;;;;;;;;;24.00;63.00;;;;;;5044172;28;20004;-58
2021/07/28 01:58:13;;;;;;;;;;;24.00;63.00;;;;;;5041540;28;19917;-60
2021/07/28 02:00:39;;;;;;;;;;;24.00;63.20;;;;;;5044132;28;20007;-59
2021/07/28 02:03:04;;;;;;;;;;;24.00;63.20;;;;;;5043751;28;19924;-59
2021/07/28 02:05:30;;;;;;;;;;;23.90;63.20;;;;;;5043923;28;20343;-59
2021/07/28 02:08:01;;;;;;;;;;;23.90;63.20;;;;;;5043981;28;19948;-58
2021/07/28 02:10:26;;;;;;;;;;;24.00;63.40;;;;;;5044108;28;20499;-58
2021/07/28 02:12:52;;;;;;;;;;;23.90;63.40;;;;;;5043812;28;19952;-58
2021/07/28 02:15:17;;;;;;;;;;;23.90;64.20;;;;;;5042289;28;20293;-58
2021/07/28 02:17:43;;;;;;;;;;;23.90;63.50;;;;;;5043187;28;19917;-57
2021/07/28 02:20:08;;;;;;;;;;;23.90;63.60;;;;;;5043818;28;19917;-57
2021/07/28 02:22:34;;;;;;;;;;;23.90;63.70;;;;;;5043839;28;20003;-59
2021/07/28 02:24:59;;;;;;;;;;;23.90;63.80;;;;;;5043801;28;19912;-59
2021/07/28 02:27:25;;;;;;;;;;;23.90;63.90;;;;;;5042870;28;20361;-60
2021/07/28 02:29:50;;;;;;;;;;;23.90;63.90;;;;;;5043880;28;19987;-59
2021/07/28 02:32:16;;;;;;;;;;;23.90;64.00;;;;;;5044407;28;19913;-59
2021/07/28 02:34:41;;;;;;;;;;;23.90;64.00;;;;;;5043455;28;19925;-58
2021/07/28 02:37:07;;;;;;;;;;;23.90;64.10;;;;;;5044183;28;19963;-58
2021/07/28 02:39:32;;;;;;;;;;;23.90;64.20;;;;;;5044016;28;20388;-58
2021/07/28 02:41:59;;;;;;;;;;;23.90;64.30;;;;;;5044417;28;19917;-58
2021/07/28 02:44:25;;;;;;;;;;;23.90;64.30;;;;;;5034536;28;19970;-58
2021/07/28 02:46:50;;;;;;;;;;;23.90;64.30;;;;;;5044010;28;19917;-59
2021/07/28 02:49:16;;;;;;;;;;;23.90;64.30;;;;;;5044467;28;20373;-58
2021/07/28 02:51:41;;;;;;;;;;;23.90;64.40;;;;;;5045500;28;20389;-58
2021/07/28 02:54:08;;;;;;;;;;;23.90;64.40;;;;;;5045813;28;19917;-58
2021/07/28 02:56:33;;;;;;;;;;;23.90;64.40;;;;;;5045641;28;19919;-59
2021/07/28 02:58:59;;;;;;;;;;;23.90;64.50;;;;;;5044902;28;19916;-58
2021/07/28 03:01:24;;;;;;;;;;;23.90;64.50;;;;;;5045152;28;19920;-60
2021/07/28 03:03:50;;;;;;;;;;;23.90;64.50;;;;;;5044044;28;19920;-59
2021/07/28 03:06:15;;;;;;;;;;;23.90;64.60;;;;;;5044074;28;19935;-58
2021/07/28 03:08:41;;;;;;;;;;;23.80;64.50;;;;;;5043512;28;19928;-59
2021/07/28 03:11:06;;;;;;;;;;;23.90;64.60;;;;;;5043459;28;20640;-60
2021/07/28 03:13:31;;;;;;;;;;;23.90;64.60;;;;;;5043765;28;19912;-59
2021/07/28 03:16:03;;;;;;;;;;;23.90;64.60;;;;;;5043906;28;19924;-59
2021/07/28 03:18:29;;;;;;;;;;;23.90;64.60;;;;;;5042587;28;21064;-59
2021/07/28 03:20:55;;;;;;;;;;;23.80;64.60;;;;;;5043125;28;19927;-59
2021/07/28 03:23:20;;;;;;;;;;;23.80;64.60;;;;;;5043370;28;19920;-60
2021/07/28 03:25:46;;;;;;;;;;;23.80;64.60;;;;;;5043177;28;19927;-60
2021/07/28 03:28:11;;;;;;;;;;;23.90;64.70;;;;;;5043206;28;19913;-60
2021/07/28 03:30:37;;;;;;;;;;;23.80;64.70;;;;;;5043108;28;19920;-60
2021/07/28 03:33:02;;;;;;;;;;;23.80;64.70;;;;;;5043589;28;19936;-59
2021/07/28 03:35:28;;;;;;;;;;;23.80;64.70;;;;;;5043979;28;20000;-60
2021/07/28 03:37:53;;;;;;;;;;;23.80;64.60;;;;;;5042721;28;19917;-60
2021/07/28 03:40:19;;;;;;;;;;;23.80;64.60;;;;;;5033271;28;19928;-58
2021/07/28 03:42:47;;;;;;;;;;;23.80;64.60;;;;;;5022118;28;19939;-59
2021/07/28 03:45:13;;;;;;;;;;;23.80;64.70;;;;;;5023044;28;19913;-59
2021/07/28 03:47:38;;;;;;;;;;;23.80;65.30;;;;;;5021030;28;20063;-59
2021/07/28 03:50:04;;;;;;;;;;;23.80;64.70;;;;;;5023080;28;19913;-60
2021/07/28 03:52:29;;;;;;;;;;;23.80;64.70;;;;;;5023311;28;20355;-60
2021/07/28 03:54:55;;;;;;;;;;;23.80;64.80;;;;;;5023091;28;20026;-59
2021/07/28 03:57:20;;;;;;;;;;;23.80;64.80;;;;;;5022757;28;19917;-59
2021/07/28 03:59:46;;;;;;;;;;;23.80;64.80;;;;;;5022338;28;19917;-59
2021/07/28 04:02:13;;;;;;;;;;;23.80;64.80;;;;;;5021947;28;19974;-60
2021/07/28 04:04:39;;;;;;;;;;;23.80;64.90;;;;;;5022677;28;19924;-60
2021/07/28 04:07:05;;;;;;;;;;;23.80;64.90;;;;;;5022835;28;19917;-59
2021/07/28 04:09:30;;;;;;;;;;;23.80;64.90;;;;;;5022131;28;19924;-58
2021/07/28 04:11:55;;;;;;;;;;;23.80;65.00;;;;;;5022831;28;20392;-59
2021/07/28 04:14:21;;;;;;;;;;;23.80;65.00;;;;;;5022471;28;19914;-59
2021/07/28 04:16:46;;;;;;;;;;;23.80;65.00;;;;;;5022278;28;19921;-59
2021/07/28 04:19:12;;;;;;;;;;;23.80;65.10;;;;;;5021877;28;19913;-60
2021/07/28 04:21:37;;;;;;;;;;;23.80;65.10;;;;;;5022262;28;19924;-60
2021/07/28 04:24:03;;;;;;;;;;;23.80;65.10;;;;;;5022328;28;19917;-57
2021/07/28 04:26:28;;;;;;;;;;;23.80;65.10;;;;;;5022603;28;20008;-59
2021/07/28 04:28:54;;;;;;;;;;;23.80;65.10;;;;;;5043967;22;20167;-72
2021/07/28 04:31:19;;;;;;;;;;;23.80;65.10;;;;;;5058971;28;20013;-72
2021/07/28 04:33:44;;;;;;;;;;;23.80;65.10;;;;;;5045301;28;19928;-72
2021/07/28 04:36:10;;;;;;;;;;;23.70;65.10;;;;;;5045159;28;20315;-72
2021/07/28 04:38:35;;;;;;;;;;;23.80;65.20;;;;;;5059955;28;19913;-72
2021/07/28 04:41:01;;;;;;;;;;;23.70;65.10;;;;;;5043640;28;19913;-73
2021/07/28 04:43:26;;;;;;;;;;;23.70;65.10;;;;;;5027223;28;19935;-72
2021/07/28 04:46:01;;;;;;;;;;;23.80;65.30;;;;;;5045000;28;20359;-72
2021/07/28 04:48:27;;;;;;;;;;;23.80;65.20;;;;;;5039198;28;19920;-72
2021/07/28 04:50:56;;;;;;;;;;;23.70;65.30;;;;;;5044859;28;19927;-71
2021/07/28 04:53:21;;;;;;;;;;;23.80;65.30;;;;;;5043366;28;20048;-72
2021/07/28 04:55:50;;;;;;;;;;;23.80;65.30;;;;;;5043312;28;20011;-71
2021/07/28 04:58:16;;;;;;;;;;;23.70;65.30;;;;;;5044806;28;20403;-71
2021/07/28 05:00:41;;;;;;;;;;;23.80;65.40;;;;;;5043953;28;19916;-71
2021/07/28 05:03:07;;;;;;;;;;;23.80;65.50;;;;;;5045002;28;20295;-72
2021/07/28 05:05:32;;;;;;;;;;;23.70;65.40;;;;;;5026502;28;19944;-72
2021/07/28 05:07:57;;;;;;;;;;;23.80;65.50;;;;;;5044958;28;19959;-72
2021/07/28 05:10:25;;;;;;;;;;;23.70;65.40;;;;;;5044531;28;19920;-72
2021/07/28 05:12:50;;;;;;;;;;;23.80;65.50;;;;;;5043343;28;19928;-72
2021/07/28 05:15:16;;;;;;;;;;;23.70;65.40;;;;;;5043343;28;19913;-71
2021/07/28 05:17:42;;;;;;;;;;;23.70;65.50;;;;;;5043161;28;20296;-71
2021/07/28 05:20:08;;;;;;;;;;;23.70;65.50;;;;;;5044599;28;20000;-71
2021/07/28 05:22:33;;;;;;;;;;;23.80;65.60;;;;;;5044688;28;20000;-71
2021/07/28 05:24:59;;;;;;;;;;;23.70;65.50;;;;;;5045598;28;19913;-70
2021/07/28 05:27:24;;;;;;;;;;;23.70;65.50;;;;;;5044580;28;19948;-70
2021/07/28 05:29:50;;;;;;;;;;;23.70;65.50;;;;;;5044675;28;20303;-70
2021/07/28 05:32:16;;;;;;;;;;;23.70;65.60;;;;;;5045994;28;19921;-71
2021/07/28 05:34:41;;;;;;;;;;;23.70;65.60;;;;;;5043385;28;19958;-71
2021/07/28 05:37:06;;;;;;;;;;;23.70;65.70;;;;;;5044718;28;19913;-71
2021/07/28 05:39:32;;;;;;;;;;;23.70;65.70;;;;;;5042847;28;20280;-71
2021/07/28 05:41:57;;;;;;;;;;;23.70;65.70;;;;;;5045193;28;19940;-71
2021/07/28 05:44:23;;;;;;;;;;;23.70;65.70;;;;;;5046459;28;19945;-71
2021/07/28 05:46:48;;;;;;;;;;;23.70;65.70;;;;;;5047085;28;20375;-70
2021/07/28 05:49:14;;;;;;;;;;;23.70;65.80;;;;;;5047986;28;19913;-71
2021/07/28 05:51:39;;;;;;;;;;;23.70;65.80;;;;;;5046574;28;19924;-71
2021/07/28 05:54:05;;;;;;;;;;;23.70;65.90;;;;;;5046530;28;19917;-71
2021/07/28 05:56:30;;;;;;;;;;;23.70;65.90;;;;;;5046853;28;20378;-72
2021/07/28 05:58:55;;;;;;;;;;;23.70;65.90;;;;;;5047488;28;19917;-71
2021/07/28 06:01:21;;;;;;;;;;;23.70;66.00;;;;;;5046357;28;19963;-71
2021/07/28 06:03:47;;;;;;;;;;;23.80;66.10;;;;;;5047955;28;20414;-71
2021/07/28 06:06:12;;;;;;;;;;;23.70;66.10;;;;;;5047760;28;19966;-71
2021/07/28 06:08:38;;;;;;;;;;;23.80;66.10;;;;;;5047666;28;20409;-71
2021/07/28 06:11:03;;;;;;;;;;;23.80;66.20;;;;;;5047741;28;19916;-71
2021/07/28 06:13:28;;;;;;;;;;;23.70;66.10;;;;;;5046746;28;19913;-71
2021/07/28 06:15:54;;;;;;;;;;;23.80;66.20;;;;;;5046061;28;19920;-71
2021/07/28 06:18:19;;;;;;;;;;;23.70;66.20;;;;;;5047430;28;19913;-71
2021/07/28 06:20:45;;;;;;;;;;;23.70;66.20;;;;;;5047208;28;20395;-71
2021/07/28 06:23:10;;;;;;;;;;;23.70;66.10;;;;;;5045847;28;19944;-71
2021/07/28 06:25:36;;;;;;;;;;;23.70;66.10;;;;;;5045898;28;20015;-71
2021/07/28 06:28:01;;;;;;;;;;;23.70;66.20;;;;;;5045873;28;20547;-72
2021/07/28 06:30:27;;;;;;;;;;;23.70;66.20;;;;;;5047489;28;19924;-71
2021/07/28 06:32:52;;;;;;;;;;;23.70;66.20;;;;;;5047236;28;20280;-71
2021/07/28 06:35:18;;;;;;;;;;;23.70;66.10;;;;;;5045600;28;19940;-71
2021/07/28 06:37:43;;;;;;;;;;;23.70;66.10;;;;;;5046697;28;19917;-72
2021/07/28 06:40:09;;;;;;;;;;;23.70;66.20;;;;;;5046999;28;20264;-71
2021/07/28 06:42:34;;;;;;;;;;;23.70;66.20;;;;;;5046968;28;19917;-71
2021/07/28 06:45:00;;;;;;;;;;;23.70;66.20;;;;;;5046025;28;19913;-71
2021/07/28 06:47:25;;;;;;;;;;;23.70;66.20;;;;;;5045492;28;20315;-71
2021/07/28 06:49:50;;;;;;;;;;;23.70;66.20;;;;;;5046564;28;19921;-71
2021/07/28 06:52:16;;;;;;;;;;;23.70;66.20;;;;;;5045952;28;19913;-71
2021/07/28 06:54:41;;;;;;;;;;;23.70;66.20;;;;;;5044976;28;19913;-71
2021/07/28 06:57:07;;;;;;;;;;;23.70;66.20;;;;;;5047136;28;19966;-71
2021/07/28 06:59:32;;;;;;;;;;;23.70;66.30;;;;;;5045121;28;20490;-71
2021/07/28 07:01:58;;;;;;;;;;;23.70;66.30;;;;;;5045751;28;19924;-71
2021/07/28 07:04:23;;;;;;;;;;;23.70;66.30;;;;;;5046920;28;19920;-71
2021/07/28 07:06:48;;;;;;;;;;;23.60;66.30;;;;;;5045184;28;19917;-71
2021/07/28 07:09:14;;;;;;;;;;;23.60;66.30;;;;;;5046491;28;20325;-71
2021/07/28 07:11:39;;;;;;;;;;;23.60;66.20;;;;;;5046849;28;19951;-71
2021/07/28 07:14:05;;;;;;;;;;;23.60;66.10;;;;;;5045651;28;19923;-71
2021/07/28 07:16:30;;;;;;;;;;;23.60;66.10;;;;;;5045995;28;19916;-71
2021/07/28 07:18:56;;;;;;;;;;;23.70;66.20;;;;;;5045831;28;19928;-71
2021/07/28 07:21:21;;;;;;;;;;;23.60;66.20;;;;;;5046837;28;20299;-71
2021/07/28 07:23:47;;;;;;;;;;;23.60;66.20;;;;;;5030359;28;19920;-71
2021/07/28 07:26:12;;;;;;;;;;;23.60;66.20;;;;;;5048438;28;19925;-71
2021/07/28 07:28:38;;;;;;;;;;;23.60;66.20;;;;;;5047555;28;20302;-70
2021/07/28 07:31:07;;;;;;;;;;;23.60;66.10;;;;;;5048796;28;19913;-72
2021/07/28 07:33:39;;;;;;;;;;;23.60;66.10;;;;;;5046595;28;19940;-71
2021/07/28 07:36:11;;;;;;;;;;;23.60;66.20;;;;;;5030193;28;20288;-71
2021/07/28 07:38:37;;;;;;;;;;;23.70;66.20;;;;;;5029153;28;19923;-71
2021/07/28 07:41:03;;;;;;;;;;;23.60;66.20;;;;;;5045302;28;19912;-71
2021/07/28 07:43:28;;;;;;;;;;;23.70;66.20;;;;;;5046782;28;20298;-71
2021/07/28 07:45:55;;;;;;;;;;;23.60;66.10;;;;;;5028041;28;19916;-72
2021/07/28 07:48:23;;;;;;;;;;;23.60;66.10;;;;;;5044542;28;20294;-71
2021/07/28 07:50:49;;;;;;;;;;;23.70;66.20;;;;;;5045659;28;19928;-71
2021/07/28 07:53:14;;;;;;;;;;;23.60;66.10;;;;;;5045018;28;19921;-71
2021/07/28 07:55:40;;;;;;;;;;;23.60;66.10;;;;;;5044789;28;19927;-71
2021/07/28 07:58:05;;;;;;;;;;;23.60;66.00;;;;;;5044577;28;19920;-71
2021/07/28 08:00:31;;;;;;;;;;;23.70;66.00;;;;;;5046489;28;19916;-71
2021/07/28 08:02:56;;;;;;;;;;;23.70;65.80;;;;;;5040085;28;19920;-71
2021/07/28 08:05:22;;;;;;;;;;;23.70;65.70;;;;;;5045699;28;19932;-72
2021/07/28 08:07:47;;;;;;;;;;;23.70;65.70;;;;;;5046318;28;20390;-71
2021/07/28 08:10:13;;;;;;;;;;;23.70;65.70;;;;;;5028885;28;19939;-71
2021/07/28 08:12:38;;;;;;;;;;;23.70;65.70;;;;;;5044835;28;19927;-71
2021/07/28 08:15:04;;;;;;;;;;;23.70;65.60;;;;;;5044123;28;19919;-71
2021/07/28 08:17:29;;;;;;;;;;;23.70;65.50;;;;;;5045972;28;19913;-71
2021/07/28 08:19:55;;;;;;;;;;;23.70;65.50;;;;;;5043506;28;19927;-71
2021/07/28 08:22:20;;;;;;;;;;;23.70;65.40;;;;;;5043973;28;19959;-71
2021/07/28 08:24:45;;;;;;;;;;;23.70;65.50;;;;;;5027461;28;20298;-71
2021/07/28 08:27:11;;;;;;;;;;;23.70;65.30;;;;;;5043964;28;19916;-71
2021/07/28 08:29:36;;;;;;;;;;;23.70;65.20;;;;;;5043113;28;19931;-71
2021/07/28 08:32:02;;;;;;;;;;;23.70;65.20;;;;;;5043629;28;20054;-72
2021/07/28 08:34:27;;;;;;;;;;;23.70;65.10;;;;;;5044061;28;20291;-71
2021/07/28 08:36:53;;;;;;;;;;;23.70;65.10;;;;;;5027275;28;19920;-71
2021/07/28 08:39:18;;;;;;;;;;;23.80;65.20;;;;;;5045091;28;20310;-71
2021/07/28 08:41:46;;;;;;;;;;;23.70;65.10;;;;;;5043877;28;19960;-70
2021/07/28 08:44:12;;;;;;;;;;;23.70;65.20;;;;;;5043935;28;19913;-71
2021/07/28 08:46:37;;;;;;;;;;;23.70;65.10;;;;;;5042937;28;19935;-72
2021/07/28 08:49:03;;;;;;;;;;;23.70;65.00;;;;;;5043373;28;19928;-72
2021/07/28 08:51:28;;;;;;;;;;;23.70;64.90;;;;;;5045212;28;20421;-72
2021/07/28 08:53:54;;;;;;;;;;;23.70;64.80;;;;;;5026918;28;19920;-72
2021/07/28 08:56:23;;;;;;;;;;;23.70;64.90;;;;;;5026735;28;19919;-72
2021/07/28 08:58:48;;;;;;;;;;;23.70;65.00;;;;;;5043382;28;19917;-71
2021/07/28 09:01:13;;;;;;;;;;;23.70;64.90;;;;;;5043658;28;19913;-72
2021/07/28 09:03:39;;;;;;;;;;;23.70;64.80;;;;;;5044942;28;19913;-71
2021/07/28 09:06:05;;;;;;;;;;;23.70;64.80;;;;;;5043484;28;20494;-72
2021/07/28 09:08:31;;;;;;;;;;;23.70;64.70;;;;;;5044097;28;20420;-72
2021/07/28 09:11:04;;;;;;;;;;;23.70;64.60;;;;;;5043583;28;20272;-72
2021/07/28 09:13:35;;;;;;;;;;;23.70;64.60;;;;;;5039960;28;19935;-72
2021/07/28 09:16:01;;;;;;;;;;;23.80;64.60;;;;;;5023031;28;19924;-72
2021/07/28 09:18:31;;;;;;;;;;;23.70;64.60;;;;;;5044909;28;19921;-72
2021/07/28 09:20:56;;;;;;;;;;;23.70;64.50;;;;;;5047231;28;19929;-71
2021/07/28 09:23:23;;;;;;;;;;;23.70;64.50;;;;;;5048238;28;19921;-72
2021/07/28 09:25:54;;;;;;;;;;;23.70;64.60;;;;;;5030848;28;19927;-72
2021/07/28 09:28:21;;;;;;;;;;;23.70;64.60;;;;;;5048959;28;19932;-72
2021/07/28 09:30:46;;;;;;;;;;;23.80;64.40;;;;;;5047440;28;20035;-70
2021/07/28 09:33:12;;;;;;;;;;;23.70;64.20;;;;;;5049616;28;19913;-72
2021/07/28 09:35:47;;;;;;;;;;;23.80;64.20;;;;;;5049162;28;19917;-72
2021/07/28 09:38:31;;;;;;;;;;;23.70;64.20;;;;;;5049136;28;19913;-72
2021/07/28 09:41:17;;;;;;;;;;;23.80;64.30;;;;;;5049167;28;19913;-72
2021/07/28 09:43:44;;;;;;;;;;;23.80;64.40;;;;;;5046205;28;19921;-72
2021/07/28 09:46:19;;;;;;;;;;;23.80;64.40;;;;;;5047627;28;19921;-72
2021/07/28 09:48:44;;;;;;;;;;;23.80;64.30;;;;;;5047356;28;19913;-70
2021/07/28 09:51:20;;;;;;;;;;;23.70;64.10;;;;;;5047050;28;19982;-71
2021/07/28 09:53:46;;;;;;;;;;;23.70;64.10;;;;;;5038915;28;20498;-72
2021/07/28 09:56:21;;;;;;;;;;;23.70;64.10;;;;;;5034009;28;19921;-73
2021/07/28 09:58:46;;;;;;;;;;;23.70;64.10;;;;;;5023758;28;19970;-72
2021/07/28 10:01:12;;;;;;;;;;;23.80;64.10;;;;;;5030289;28;19952;-71
2021/07/28 10:03:37;;;;;;;;;;;23.70;64.00;;;;;;5028096;28;19924;-72
2021/07/28 10:06:02;;;;;;;;;;;23.70;64.00;;;;;;5028295;28;20307;-73
2021/07/28 10:08:28;;;;;;;;;;;23.70;64.00;;;;;;5026072;28;19948;-73
2021/07/28 10:10:53;;;;;;;;;;;23.80;64.00;;;;;;5027865;28;19917;-72
2021/07/28 10:13:19;;;;;;;;;;;23.80;64.00;;;;;;5029985;28;19943;-72
2021/07/28 10:15:44;;;;;;;;;;;23.70;63.80;;;;;;5029633;28;19951;-72
2021/07/28 10:18:10;;;;;;;;;;;23.80;63.90;;;;;;5048510;28;19967;-72
2021/07/28 10:20:36;;;;;;;;;;;23.70;63.80;;;;;;5047761;28;20039;-72
2021/07/28 10:23:01;;;;;;;;;;;23.80;63.90;;;;;;5029999;28;20672;-72
2021/07/28 10:25:27;;;;;;;;;;;23.70;63.80;;;;;;5046868;28;19917;-72
2021/07/28 10:27:52;;;;;;;;;;;23.80;63.80;;;;;;5046480;28;19916;-71
2021/07/28 10:30:21;;;;;;;;;;;23.80;64.00;;;;;;5041124;23;20577;-61
2021/07/28 10:32:46;;;;;;;;;;;23.80;63.70;;;;;;5042391;28;19917;-62
2021/07/28 10:35:28;;;;;;;;;;;23.80;63.70;;;;;;5041431;28;19923;-61
2021/07/28 10:37:57;;;;;;;;;;;23.70;63.60;;;;;;5022961;28;19917;-58
2021/07/28 10:40:32;;;;;;;;;;;23.80;63.60;;;;;;5020189;28;19936;-61
2021/07/28 10:42:59;;;;;;;;;;;23.80;63.60;;;;;;5021682;28;19924;-61
2021/07/28 10:45:24;;;;;;;;;;;23.80;63.50;;;;;;5022418;28;19913;-61
2021/07/28 10:47:51;;;;;;;;;;;23.80;63.50;;;;;;5023695;28;20549;-60
2021/07/28 10:50:22;;;;;;;;;;;23.80;63.50;;;;;;5022804;28;20354;-60
2021/07/28 10:53:08;;;;;;;;;;;23.80;63.30;;;;;;5024407;28;19948;-61
2021/07/28 10:55:34;;;;;;;;;;;23.80;63.40;;;;;;5023817;28;20418;-61
2021/07/28 10:58:06;;;;;;;;;;;23.80;63.30;;;;;;5023052;28;19970;-62
2021/07/28 11:00:35;;;;;;;;;;;23.80;63.50;;;;;;5024879;28;19921;-61
2021/07/28 11:03:00;;;;;;;;;;;23.80;63.50;;;;;;5024696;28;19956;-62
2021/07/28 11:05:26;;;;;;;;;;;23.80;63.50;;;;;;5024451;28;20472;-61
2021/07/28 11:08:07;;;;;;;;;;;23.80;63.30;;;;;;5024208;28;20424;-62
2021/07/28 11:10:36;;;;;;;;;;;23.80;63.30;;;;;;5024393;28;19922;-61
2021/07/28 11:13:07;;;;;;;;;;;23.80;63.30;;;;;;5022779;28;19971;-60
2021/07/28 11:15:33;;;;;;;;;;;23.80;63.30;;;;;;5006212;28;20294;-60
2021/07/28 11:17:58;;;;;;;;;;;23.80;63.20;;;;;;5022403;28;19913;-61
2021/07/28 11:20:27;;;;;;;;;;;23.80;63.30;;;;;;5022750;28;20485;-61
2021/07/28 11:22:52;;;;;;;;;;;23.80;63.30;;;;;;5023374;28;19921;-60
2021/07/28 11:25:18;;;;;;;;;;;23.80;63.20;;;;;;5024134;28;20385;-61
2021/07/28 11:28:02;;;;;;;;;;;23.80;63.20;;;;;;5023457;28;19913;-60
2021/07/28 11:30:27;;;;;;;;;;;23.80;63.20;;;;;;5023597;28;20452;-61
2021/07/28 11:32:53;;;;;;;;;;;23.80;63.10;;;;;;5023727;28;19917;-61
2021/07/28 11:35:19;;;;;;;;;;;23.80;63.00;;;;;;5023890;28;20417;-62
2021/07/28 11:37:44;;;;;;;;;;;23.80;62.90;;;;;;5023564;28;19920;-60
2021/07/28 11:40:10;;;;;;;;;;;23.70;62.80;;;;;;5023915;28;20536;-58
2021/07/28 11:42:35;;;;;;;;;;;23.70;62.70;;;;;;5022064;28;19921;-61
2021/07/28 11:45:01;;;;;;;;;;;23.80;62.70;;;;;;5023780;28;19918;-61
2021/07/28 11:47:27;;;;;;;;;;;23.80;62.70;;;;;;5022186;28;20374;-61
2021/07/28 11:49:59;;;;;;;;;;;23.70;62.40;;;;;;5017294;28;19917;-60
2021/07/28 11:52:24;;;;;;;;;;;23.70;62.40;;;;;;5022177;28;19917;-60
2021/07/28 11:54:49;;;;;;;;;;;23.80;62.40;;;;;;5023009;28;19919;-61
2021/07/28 11:57:17;;;;;;;;;;;23.70;62.40;;;;;;5020929;28;19918;-61
2021/07/28 11:59:42;;;;;;;;;;;23.70;62.40;;;;;;5022038;28;19913;-60
2021/07/28 12:02:17;;;;;;;;;;;23.80;62.40;;;;;;5023063;28;20603;-60
2021/07/28 12:04:46;;;;;;;;;;;23.70;62.40;;;;;;5021529;28;19913;-61
2021/07/28 12:07:12;;;;;;;;;;;23.70;62.50;;;;;;5023670;28;19913;-60
2021/07/28 12:09:38;;;;;;;;;;;23.70;62.50;;;;;;5021644;28;19988;-61
2021/07/28 12:12:04;;;;;;;;;;;23.70;62.50;;;;;;5021632;28;19948;-62
2021/07/28 12:14:38;;;;;;;;;;;23.70;62.60;;;;;;5021544;28;20000;-61
2021/07/28 12:17:13;;;;;;;;;;;23.70;62.50;;;;;;5021615;28;20542;-61
2021/07/28 12:19:39;;;;;;;;;;;23.70;62.50;;;;;;5022630;28;19927;-61
2021/07/28 12:22:05;;;;;;;;;;;23.70;62.50;;;;;;5021498;28;20302;-61
2021/07/28 12:24:31;;;;;;;;;;;23.70;62.50;;;;;;5023265;28;19913;-59
2021/07/28 12:26:58;;;;;;;;;;;23.70;62.50;;;;;;5022618;28;20370;-62
2021/07/28 12:29:37;;;;;;;;;;;23.70;62.50;;;;;;5022145;28;20131;-62
2021/07/28 12:32:12;;;;;;;;;;;23.70;62.50;;;;;;5021299;28;19917;-61
2021/07/28 12:34:37;;;;;;;;;;;23.70;62.50;;;;;;5021085;28;19917;-61
2021/07/28 12:37:18;;;;;;;;;;;23.70;62.50;;;;;;5020986;28;20338;-62
2021/07/28 12:39:44;;;;;;;;;;;23.70;62.40;;;;;;5018656;28;19963;-62
2021/07/28 12:42:09;;;;;;;;;;;23.70;62.40;;;;;;5022906;28;20571;-60
2021/07/28 12:44:35;;;;;;;;;;;23.70;62.30;;;;;;5022210;28;19959;-61
2021/07/28 12:47:00;;;;;;;;;;;23.70;62.30;;;;;;5021045;28;19941;-61
2021/07/28 12:49:26;;;;;;;;;;;23.70;62.30;;;;;;5022641;28;20302;-60
2021/07/28 12:51:51;;;;;;;;;;;23.70;62.20;;;;;;5023447;28;19913;-61
2021/07/28 12:54:17;;;;;;;;;;;23.70;62.40;;;;;;5026154;28;19921;-62
2021/07/28 12:56:42;;;;;;;;;;;23.70;62.40;;;;;;5026194;28;20378;-61
2021/07/28 12:59:08;;;;;;;;;;;23.70;62.50;;;;;;5026344;28;19917;-61
2021/07/28 13:01:33;;;;;;;;;;;23.70;62.50;;;;;;5007985;28;19928;-61
2021/07/28 13:04:02;;;;;;;;;;;23.70;62.50;;;;;;5024778;28;19920;-61
2021/07/28 13:06:28;;;;;;;;;;;23.60;62.50;;;;;;5025348;28;19959;-61
2021/07/28 13:08:54;;;;;;;;;;;23.70;62.50;;;;;;5008354;28;20027;-62
2021/07/28 13:11:19;;;;;;;;;;;23.60;62.40;;;;;;5026488;28;19921;-61
2021/07/28 13:13:44;;;;;;;;;;;23.70;62.50;;;;;;5026083;28;19967;-62
2021/07/28 13:16:10;;;;;;;;;;;23.70;62.40;;;;;;5026397;28;20302;-61
2021/07/28 13:18:35;;;;;;;;;;;23.70;62.20;;;;;;5024061;28;19913;-61
2021/07/28 13:21:01;;;;;;;;;;;23.60;62.10;;;;;;5025177;28;19917;-60
2021/07/28 13:23:28;;;;;;;;;;;23.60;62.10;;;;;;5024459;28;19924;-61
2021/07/28 13:25:54;;;;;;;;;;;23.60;62.00;;;;;;5025091;28;19920;-61
2021/07/28 13:28:19;;;;;;;;;;;23.60;61.90;;;;;;5024240;28;19913;-61
2021/07/28 13:30:45;;;;;;;;;;;23.70;62.00;;;;;;5025104;28;19921;-61
2021/07/28 13:33:10;;;;;;;;;;;23.60;62.00;;;;;;5026151;28;19921;-61
2021/07/28 13:35:37;;;;;;;;;;;23.60;62.00;;;;;;5024443;28;20597;-61
2021/07/28 13:38:02;;;;;;;;;;;23.60;62.10;;;;;;5025603;28;19980;-61
2021/07/28 13:40:28;;;;;;;;;;;23.60;62.20;;;;;;5024634;28;20323;-60
2021/07/28 13:42:54;;;;;;;;;;;23.60;62.20;;;;;;5025724;28;19919;-61
2021/07/28 13:45:20;;;;;;;;;;;23.60;62.20;;;;;;5025852;28;19917;-61
2021/07/28 13:47:48;;;;;;;;;;;23.60;62.30;;;;;;5025353;28;19963;-61
2021/07/28 13:50:17;;;;;;;;;;;23.60;62.40;;;;;;5027012;28;19919;-61
2021/07/28 13:52:42;;;;;;;;;;;23.60;62.50;;;;;;5024850;28;20025;-61
2021/07/28 13:55:08;;;;;;;;;;;23.60;62.60;;;;;;5008230;28;20713;-61
2021/07/28 13:57:33;;;;;;;;;;;23.60;62.60;;;;;;5025364;28;19921;-61
2021/07/28 13:59:59;;;;;;;;;;;23.60;62.70;;;;;;5025909;28;20132;-61
2021/07/28 14:02:27;;;;;;;;;;;23.60;62.90;;;;;;5025996;28;19925;-61
2021/07/28 14:04:53;;;;;;;;;;;23.60;62.90;;;;;;5024070;28;19971;-60
2021/07/28 14:07:18;;;;;;;;;;;23.70;63.00;;;;;;5024505;28;19952;-60
2021/07/28 14:09:44;;;;;;;;;;;23.60;62.90;;;;;;5025667;28;19959;-63
2021/07/28 14:12:09;;;;;;;;;;;23.60;63.10;;;;;;5025134;28;19913;-60